Time;durP1;ratioP1;P1;durP2;ratioP2;P2;SDS_P1;SDS_P2;PMS_P1;PMS_P2;Temp;Humidity;BMP_temperature;BMP_pressure;BME280_temperature;BME280_humidity;BME280_pressure;Samples;Min_cycle;Max_cycle;Signal;HPM_P1;HPM_P2
2022/05/15 00:01:47;;;;;;;4.28;1.10;;;;;;;12.74;54.76;101051.75;5116031;28;20101;-63
2022/05/15 00:04:15;;;;;;;3.00;0.95;;;;;;;12.74;54.92;101046.56;5107248;28;20461;-64
2022/05/15 00:06:45;;;;;;;3.33;1.25;;;;;;;12.72;54.88;101050.94;5105269;28;20067;-63
2022/05/15 00:09:14;;;;;;;2.97;1.10;;;;;;;12.70;55.18;101047.47;5095857;28;20052;-63
2022/05/15 00:11:45;;;;;;;7.15;1.33;;;;;;;12.70;55.00;101043.16;5095209;28;20346;-63
2022/05/15 00:14:20;;;;;;;3.95;1.38;;;;;;;12.73;54.95;101050.03;5095314;28;20059;-63
2022/05/15 00:16:48;;;;;;;;;;;;;;;12.64;55.32;101046.69;5095769;28;20101;-63
2022/05/15 00:19:19;;;;;;;3.90;0.98;;;;;;;12.66;55.05;101043.19;5094622;28;19924;-64
2022/05/15 00:21:46;;;;;;;4.68;1.67;;;;;;;12.66;55.01;101048.41;5094365;28;20050;-63
2022/05/15 00:24:14;;;;;;;5.65;1.20;;;;;;;12.62;55.21;101048.44;5095419;28;20052;-64
2022/05/15 00:26:42;;;;;;;7.72;1.73;;;;;;;12.60;55.33;101054.53;5094716;28;20656;-63
2022/05/15 00:29:10;;;;;;;6.60;1.73;;;;;;;12.57;55.39;101060.63;5095088;28;20055;-63
2022/05/15 00:31:47;;;;;;;3.85;1.38;;;;;;;12.54;55.52;101050.28;5095054;28;20058;-64
2022/05/15 00:34:15;;;;;;;3.42;1.20;;;;;;;12.51;55.52;101050.31;5095291;28;20048;-64
2022/05/15 00:36:44;;;;;;;3.60;1.10;;;;;;;12.51;55.57;101050.31;5095068;28;20052;-63
2022/05/15 00:39:11;;;;;;;4.50;0.98;;;;;;;12.50;55.51;101043.38;5094598;28;20097;-63
2022/05/15 00:41:41;;;;;;;4.05;1.00;;;;;;;12.48;55.73;101050.31;5094908;28;20070;-64
2022/05/15 00:44:12;;;;;;;6.63;1.30;;;;;;;12.49;55.78;101046.88;5094944;28;20056;-63
2022/05/15 00:46:44;;;;;;;5.93;1.23;;;;;;;12.46;55.76;101054.66;5094818;28;20052;-64
2022/05/15 00:49:18;;;;;;;5.25;1.27;;;;;;;12.45;55.94;101050.34;5094086;28;20060;-63
2022/05/15 00:51:50;;;;;;;7.75;1.50;;;;;;;12.46;56.13;101061.59;5093417;28;20051;-64
2022/05/15 00:54:27;;;;;;;4.30;1.67;;;;;;;12.44;55.99;101053.81;5094233;28;20122;-63
2022/05/15 00:57:00;;;;;;;9.25;1.80;;;;;;;12.40;56.04;101067.72;5094301;28;20468;-64
2022/05/15 00:59:33;;;;;;;7.30;1.30;;;;;;;12.38;56.28;101069.50;5094495;28;20048;-64
2022/05/15 01:02:20;;;;;;;2.90;1.17;;;;;;;12.39;56.20;101076.41;5094417;28;20048;-64
2022/05/15 01:04:49;;;;;;;5.28;1.25;;;;;;;12.36;56.24;101066.03;5094004;28;20469;-64
2022/05/15 01:07:26;;;;;;;6.07;1.15;;;;;;;12.34;56.32;101067.81;5093689;28;20056;-63
2022/05/15 01:09:54;;;;;;;7.75;1.58;;;;;;;12.34;56.40;101067.81;5093814;28;20131;-63
2022/05/15 01:12:21;;;;;;;3.88;1.00;;;;;;;12.33;56.43;101072.13;5086249;28;20483;-64
2022/05/15 01:14:54;;;;;;;5.53;0.90;;;;;;;12.31;56.43;101062.63;5078867;28;20086;-64
2022/05/15 01:17:40;;;;;;;7.45;1.00;;;;;;;12.29;56.42;101069.59;5093687;28;20476;-64
2022/05/15 01:20:13;;;;;;;4.38;1.30;;;;;;;12.28;56.62;101070.47;5089165;28;20048;-64
2022/05/15 01:22:51;;;;;;;4.05;1.23;;;;;;;12.27;56.83;101069.59;5092885;28;20429;-63
2022/05/15 01:25:24;;;;;;;4.72;1.30;;;;;;;12.23;56.87;101072.25;5093656;28;20062;-63
2022/05/15 01:27:57;;;;;;;5.60;1.27;;;;;;;12.20;57.16;101075.75;5094428;28;20076;-64
2022/05/15 01:30:27;;;;;;;8.60;1.48;;;;;;;12.18;56.97;101071.44;5093911;28;20071;-64
2022/05/15 01:32:55;;;;;;;4.35;0.90;;;;;;;12.16;57.27;101083.59;5094368;28;20040;-64
2022/05/15 01:35:28;;;;;;;3.38;1.05;;;;;;;12.15;57.22;101081.84;5094123;28;20048;-62
2022/05/15 01:37:58;;;;;;;3.72;1.10;;;;;;;12.12;57.64;101081.88;5094077;28;20052;-64
2022/05/15 01:40:29;;;;;;;5.15;1.40;;;;;;;12.11;57.61;101090.56;5095255;28;20055;-64
2022/05/15 01:42:59;;;;;;;2.95;1.10;;;;;;;12.10;57.52;101094.03;5078316;28;20080;-64
2022/05/15 01:45:29;;;;;;;8.63;1.10;;;;;;;12.09;57.47;101093.19;5072822;28;20131;-64
2022/05/15 01:47:57;;;;;;;3.60;1.20;;;;;;;12.11;57.47;101093.16;5073875;28;20114;-64
2022/05/15 01:50:28;;;;;;;3.53;1.10;;;;;;;12.13;57.31;101097.47;5073213;28;20061;-64
2022/05/15 01:53:05;;;;;;;4.68;1.35;;;;;;;12.11;57.57;101095.75;5090297;28;20093;-64
2022/05/15 01:55:35;;;;;;;5.18;1.10;;;;;;;12.08;57.92;101101.84;5093703;28;20048;-64
2022/05/15 01:58:12;;;;;;;3.17;1.08;;;;;;;12.05;58.11;101095.81;5093750;28;20048;-63
2022/05/15 02:00:43;;;;;;;8.02;1.40;;;;;;;11.99;57.80;101097.59;5093666;28;20063;-64
2022/05/15 02:03:10;;;;;;;8.40;1.40;;;;;;;11.97;58.21;101099.34;5088695;28;20048;-64
2022/05/15 02:05:41;;;;;;;7.13;1.30;;;;;;;11.95;58.51;101095.88;5093534;28;20056;-64
2022/05/15 02:08:10;;;;;;;6.55;1.52;;;;;;;11.95;58.43;101095.88;5093171;28;20481;-64
2022/05/15 02:10:41;;;;;;;2.40;1.00;;;;;;;11.95;58.67;101100.19;5087268;28;20124;-64
2022/05/15 02:13:11;;;;;;;4.63;1.10;;;;;;;11.94;58.36;101103.66;5086433;28;20047;-64
2022/05/15 02:15:41;;;;;;;5.85;1.60;;;;;;;11.93;58.52;101108.00;5092741;28;20437;-64
2022/05/15 02:18:11;;;;;;;6.03;1.30;;;;;;;11.90;58.84;101109.75;5093580;28;20048;-64
2022/05/15 02:20:41;;;;;;;6.82;1.30;;;;;;;11.87;58.70;101108.06;5092884;28;20084;-64
2022/05/15 02:23:23;;;;;;;6.22;1.40;;;;;;;11.88;58.88;101114.09;5092652;28;20387;-64
2022/05/15 02:25:53;;;;;;;4.32;1.05;;;;;;;11.86;59.21;101111.53;5092742;28;20166;-64
2022/05/15 02:28:30;;;;;;;7.47;1.13;;;;;;;11.83;59.43;101114.16;5092542;28;20051;-64
2022/05/15 02:31:00;;;;;;;6.75;1.35;;;;;;;11.82;59.21;101115.03;5092988;28;20055;-64
2022/05/15 02:33:28;;;;;;;5.03;1.10;;;;;;;11.84;59.09;101113.28;5093532;28;20075;-64
2022/05/15 02:35:55;;;;;;;3.83;1.27;;;;;;;11.82;59.24;101122.81;5073074;28;20052;-64
2022/05/15 02:38:30;;;;;;;4.35;1.02;;;;;;;11.82;59.44;101122.81;5073033;28;20053;-64
2022/05/15 02:41:01;;;;;;;7.10;1.52;;;;;;;11.79;59.46;101122.84;5084869;28;20052;-64
2022/05/15 02:43:31;;;;;;;3.97;1.08;;;;;;;11.77;59.96;101123.69;5113746;28;20050;-64
2022/05/15 02:46:01;;;;;;;4.50;0.90;;;;;;;11.75;60.02;101126.28;5113728;28;20044;-64
2022/05/15 02:51:16;;;;;;;5.90;1.30;;;;;;;11.71;60.24;101122.00;5113106;28;20112;-64
2022/05/15 02:53:58;;;;;;;6.57;1.60;;;;;;;11.72;59.99;101125.47;5113483;28;20056;-64
2022/05/15 02:56:29;;;;;;;4.63;1.08;;;;;;;11.72;60.46;101128.91;5113492;28;20048;-64
2022/05/15 02:58:58;;;;;;;5.97;1.10;;;;;;;11.72;60.61;101123.72;5113445;28;20054;-64
2022/05/15 03:01:28;;;;;;;6.43;1.15;;;;;;;11.72;60.62;101121.13;5113200;28;20143;-64
2022/05/15 03:03:56;;;;;;;5.15;1.10;;;;;;;11.72;60.57;101117.66;5107512;28;20083;-64
2022/05/15 03:06:24;;;;;;;4.93;1.33;;;;;;;11.69;60.51;101123.75;5091347;28;20066;-64
2022/05/15 03:09:03;;;;;;;6.72;1.40;;;;;;;11.67;60.73;101115.09;5092953;28;20052;-64
2022/05/15 03:11:32;;;;;;;4.60;1.00;;;;;;;11.68;60.72;101115.09;5092066;28;20062;-64
2022/05/15 03:14:00;;;;;;;3.15;1.05;;;;;;;11.68;60.89;101122.03;5072560;28;20049;-64
2022/05/15 03:16:29;;;;;;;5.80;1.38;;;;;;;11.67;61.08;101120.28;5094711;28;20067;-64
2022/05/15 03:19:05;;;;;;;7.22;2.03;;;;;;;11.66;60.85;101123.75;5096680;28;20520;-64
2022/05/15 03:21:35;;;;;;;6.57;1.48;;;;;;;11.67;61.50;101125.50;5096959;28;20056;-64
2022/05/15 03:24:20;;;;;;;3.78;1.13;;;;;;;11.68;61.02;101114.22;5096841;28;20040;-64
2022/05/15 03:26:49;;;;;;;4.97;1.10;;;;;;;11.68;61.14;101137.59;5097099;28;20121;-63
2022/05/15 03:29:19;;;;;;;7.75;1.33;;;;;;;11.72;61.32;101134.09;5096827;28;20054;-63
2022/05/15 03:31:51;;;;;;;6.25;1.13;;;;;;;11.76;61.29;101141.00;5096995;28;20044;-63
2022/05/15 03:34:20;;;;;;;6.30;1.33;;;;;;;11.81;61.17;101141.88;5088624;28;20053;-65
2022/05/15 03:36:51;;;;;;;5.78;1.33;;;;;;;11.86;61.29;101147.91;5076636;28;20095;-64
2022/05/15 03:39:33;;;;;;;7.25;1.73;;;;;;;11.97;60.96;101146.09;5076337;28;20071;-64
2022/05/15 03:42:02;;;;;;;5.90;1.55;;;;;;;12.08;60.94;101142.56;5105765;28;20127;-64
2022/05/15 03:47:11;;;;;;;4.03;1.20;;;;;;;12.32;60.50;101152.75;5116859;28;20085;-64
2022/05/15 03:49:41;;;;;;;3.72;1.05;;;;;;;12.47;60.23;101160.38;5116491;28;20059;-64
2022/05/15 03:52:09;;;;;;;5.75;1.30;;;;;;;12.60;60.03;101153.34;5116929;28;20087;-64
2022/05/15 03:54:42;;;;;;;3.47;1.38;;;;;;;12.73;59.70;101157.56;5116788;28;20044;-64
2022/05/15 03:57:11;;;;;;;7.72;1.10;;;;;;;12.85;59.43;101159.16;5116352;28;20083;-64
2022/05/15 03:59:41;;;;;;;4.07;1.10;;;;;;;13.00;58.99;101169.38;5116617;28;20047;-64
2022/05/15 04:02:10;;;;;;;3.70;1.00;;;;;;;13.15;58.84;101165.78;5115700;28;20055;-64
2022/05/15 04:04:39;;;;;;;9.15;1.40;;;;;;;13.25;58.39;101170.88;5104404;28;20055;-64
2022/05/15 04:07:08;;;;;;;6.43;1.52;;;;;;;13.37;58.36;101171.59;5096246;28;20059;-64
2022/05/15 04:09:40;;;;;;;9.05;1.80;;;;;;;13.49;57.93;101179.25;5096032;28;20048;-64
2022/05/15 04:12:13;;;;;;;5.07;1.50;;;;;;;13.57;57.79;101178.28;5095688;28;20074;-64
2022/05/15 04:14:41;;;;;;;5.88;1.13;;;;;;;13.69;57.54;101176.41;5095918;28;20483;-64
2022/05/15 04:17:12;;;;;;;4.82;1.65;;;;;;;13.84;57.25;101176.16;5095996;28;20048;-64
2022/05/15 04:19:40;;;;;;;5.18;1.13;;;;;;;13.98;57.02;101183.78;5095978;28;20048;-64
2022/05/15 04:22:09;;;;;;;5.97;1.20;;;;;;;14.13;56.78;101188.78;5095965;28;20050;-64
2022/05/15 04:24:40;;;;;;;10.32;1.52;;;;;;;14.30;56.34;101191.97;5095927;28;20043;-64
2022/05/15 04:27:19;;;;;;;6.25;1.80;;;;;;;14.41;55.96;101192.66;5095451;28;20448;-64
2022/05/15 04:29:50;;;;;;;4.85;1.30;;;;;;;14.51;55.85;101196.84;5095496;28;20487;-64
2022/05/15 04:32:20;;;;;;;5.25;1.40;;;;;;;14.68;55.19;101199.19;5095503;28;20047;-64
2022/05/15 04:34:49;;;;;;;5.28;1.33;;;;;;;14.78;55.13;101205.09;5095425;28;20365;-64
2022/05/15 04:37:17;;;;;;;3.53;1.40;;;;;;;14.89;55.09;101208.38;5095420;28;20468;-64
2022/05/15 04:39:45;;;;;;;7.00;1.20;;;;;;;15.05;54.78;101206.31;5095333;28;20070;-64
2022/05/15 04:42:27;;;;;;;9.38;1.80;;;;;;;15.19;53.97;101211.28;5111579;28;20048;-64
2022/05/15 04:44:55;;;;;;;8.15;1.58;;;;;;;15.30;54.20;101204.09;5115979;28;20150;-64
2022/05/15 04:47:26;;;;;;;7.18;1.45;;;;;;;15.44;53.45;101217.72;5115840;28;20047;-64
2022/05/15 04:49:53;;;;;;;4.57;1.60;;;;;;;15.56;53.46;101214.00;5115381;28;20060;-64
2022/05/15 04:52:23;;;;;;;3.67;1.50;;;;;;;15.67;53.22;101220.78;5115380;28;20145;-64
2022/05/15 04:54:54;;;;;;;5.25;1.30;;;;;;;15.79;52.97;101217.03;5115590;28;20054;-64
2022/05/15 04:57:30;;;;;;;6.45;1.55;;;;;;;15.91;52.31;101213.28;5115217;28;20421;-64
2022/05/15 05:00:00;;;;;;;8.02;1.55;;;;;;;16.02;52.16;101221.72;5115672;28;20052;-64
2022/05/15 05:02:31;;;;;;;7.47;1.67;;;;;;;16.12;52.05;101223.22;5115382;28;20059;-63
2022/05/15 05:07:44;;;;;;;8.48;1.50;;;;;;;16.32;51.22;101231.50;5094388;28;20790;-64
2022/05/15 05:10:15;;;;;;;4.78;1.48;;;;;;;16.45;50.91;101229.44;5094207;28;20048;-64
2022/05/15 05:12:45;;;;;;;11.27;1.98;;;;;;;16.53;50.72;101230.09;5094880;28;20047;-64
2022/05/15 05:15:22;;;;;;;5.53;2.17;;;;;;;16.65;50.88;101234.19;5094707;28;20052;-64
2022/05/15 05:17:52;;;;;;;7.63;1.52;;;;;;;16.73;50.49;101232.25;5094881;28;20051;-64
2022/05/15 05:20:19;;;;;;;5.65;1.55;;;;;;;16.83;50.43;101244.22;5094953;28;20059;-64
2022/05/15 05:22:46;;;;;;;4.68;1.48;;;;;;;16.97;50.19;101241.22;5094058;28;20096;-64
2022/05/15 05:25:16;;;;;;;5.60;1.67;;;;;;;17.15;49.84;101239.84;5093246;28;20055;-64
2022/05/15 05:27:46;;;;;;;6.85;1.80;;;;;;;17.33;49.56;101247.22;5079041;28;20106;-64
2022/05/15 05:30:20;;;;;;;6.03;1.80;;;;;;;17.49;49.06;101240.66;5073934;28;20064;-64
2022/05/15 05:32:51;;;;;;;3.95;1.52;;;;;;;17.64;48.76;101245.44;5094406;28;20040;-64
2022/05/15 05:35:29;;;;;;;4.88;1.60;;;;;;;17.78;48.20;101249.47;5093850;28;20063;-64
2022/05/15 05:37:57;;;;;;;5.45;1.30;;;;;;;17.93;47.94;101256.88;5093884;28;20054;-64
2022/05/15 05:40:26;;;;;;;6.28;1.70;;;;;;;18.05;47.66;101250.38;5095558;28;20066;-64
2022/05/15 05:43:02;;;;;;;7.32;1.70;;;;;;;18.13;47.46;101254.47;5096148;28;20655;-64
2022/05/15 05:48:19;;;;;;;5.95;1.45;;;;;;;18.33;46.88;101255.63;5092918;28;20066;-64
2022/05/15 05:50:47;;;;;;;5.68;1.77;;;;;;;18.42;46.50;101250.94;5092627;28;20079;-64
2022/05/15 05:55:54;;;;;;;7.28;1.38;;;;;;;18.60;46.03;101254.72;5093721;28;20452;-64
2022/05/15 05:58:31;;;;;;;6.03;1.38;;;;;;;18.66;45.74;101262.44;5093941;28;20059;-64
2022/05/15 06:01:02;;;;;;;5.13;1.42;;;;;;;18.68;45.52;101263.22;5093375;28;20048;-64
2022/05/15 06:06:16;;;;;;;4.60;1.50;;;;;;;18.79;45.47;101266.38;5093455;28;20129;-64
2022/05/15 06:08:44;;;;;;;7.07;1.50;;;;;;;18.83;45.25;101268.00;5073560;28;20110;-64
2022/05/15 06:11:12;;;;;;;5.35;1.33;;;;;;;18.84;45.04;101282.00;5073114;28;20052;-64
2022/05/15 06:13:44;;;;;;;5.80;1.42;;;;;;;18.86;44.94;101282.78;5091274;28;20710;-64
2022/05/15 06:16:13;;;;;;;7.13;1.77;;;;;;;18.97;44.98;101264.03;5093246;28;20048;-64
2022/05/15 06:18:42;;;;;;;2.97;1.08;;;;;;;19.10;44.86;101273.19;5093881;28;20067;-64
2022/05/15 06:21:11;;;;;;;6.25;1.70;;;;;;;19.12;44.17;101264.34;5093466;28;20048;-64
2022/05/15 06:23:39;;;;;;;3.83;1.40;;;;;;;19.14;44.36;101277.44;5093301;28;20080;-64
2022/05/15 06:26:07;;;;;;;6.28;1.60;;;;;;;19.21;44.27;101271.03;5093130;28;20140;-64
2022/05/15 06:28:36;;;;;;;5.85;1.88;;;;;;;19.26;44.06;101277.03;5093148;28;20388;-64
2022/05/15 06:31:07;;;;;;;7.43;1.23;;;;;;;19.33;44.11;101283.78;5093093;28;20554;-64
2022/05/15 06:33:36;;;;;;;5.45;1.25;;;;;;;19.39;43.88;101278.28;5093306;28;20057;-64
2022/05/15 06:36:04;;;;;;;6.07;1.67;;;;;;;19.48;43.68;101282.34;5092999;28;20489;-64
2022/05/15 06:38:32;;;;;;;5.10;1.20;;;;;;;19.49;43.51;101295.44;5092203;28;20052;-64
2022/05/15 06:40:58;;;;;;;5.53;1.83;;;;;;;19.54;43.43;101298.78;5099109;28;20484;-64
2022/05/15 06:43:28;;;;;;;6.22;1.45;;;;;;;19.63;43.23;101291.47;5113310;28;20044;-64
2022/05/15 06:45:55;;;;;;;4.65;1.20;;;;;;;19.71;43.10;101294.69;5113462;28;20051;-64
2022/05/15 06:48:25;;;;;;;4.30;1.25;;;;;;;19.81;42.98;101293.44;5113410;28;20100;-64
2022/05/15 06:50:51;;;;;;;5.85;1.33;;;;;;;19.89;42.55;101296.63;5113168;28;20062;-64
2022/05/15 06:53:20;;;;;;;4.25;1.20;;;;;;;19.96;42.70;101300.75;5112725;28;20047;-64
2022/05/15 06:58:29;;;;;;;4.55;1.13;;;;;;;20.15;42.29;101296.47;5112150;28;20047;-64
2022/05/15 07:00:56;;;;;;;6.72;1.52;;;;;;;20.23;41.79;101298.81;5101149;28;20052;-64
2022/05/15 07:03:33;;;;;;;7.07;1.40;;;;;;;20.30;41.59;101308.22;5092657;28;20047;-64
2022/05/15 07:06:00;;;;;;;8.30;1.38;;;;;;;20.41;41.49;101300.78;5092617;28;20483;-64
2022/05/15 07:08:28;;;;;;;8.00;1.98;;;;;;;20.52;41.25;101300.31;5092686;28;20058;-64
2022/05/15 07:10:57;;;;;;;8.15;1.30;;;;;;;20.63;40.85;101313.06;5092926;28;20083;-64
2022/05/15 07:13:25;;;;;;;4.18;1.15;;;;;;;20.70;40.68;101310.09;5092684;28;20047;-64
2022/05/15 07:15:53;;;;;;;4.75;1.27;;;;;;;20.80;40.24;101315.84;5092566;28;20085;-64
2022/05/15 07:18:23;;;;;;;5.20;1.48;;;;;;;20.87;39.97;101321.75;5092868;28;20052;-64
2022/05/15 07:21:01;;;;;;;3.92;1.73;;;;;;;20.99;39.65;101322.09;5072419;28;20053;-65
2022/05/15 07:23:30;;;;;;;10.73;1.40;;;;;;;21.13;39.65;101333.81;5072591;28;20041;-64
2022/05/15 07:25:59;;;;;;;4.18;1.55;;;;;;;21.16;39.64;101324.00;5072148;28;20577;-64
2022/05/15 07:28:28;;;;;;;4.57;1.02;;;;;;;21.17;39.23;101325.72;5072439;28;20055;-64
2022/05/15 07:30:55;;;;;;;2.85;1.30;;;;;;;21.24;39.10;101329.81;5076475;28;20480;-64
2022/05/15 07:33:22;;;;;;;5.03;1.40;;;;;;;21.34;38.81;101328.53;5092353;28;20519;-64
2022/05/15 07:35:54;;;;;;;4.78;1.13;;;;;;;21.45;38.56;101329.84;5092693;28;20424;-64
2022/05/15 07:38:24;;;;;;;3.05;1.10;;;;;;;21.55;38.71;101331.13;5092778;28;20101;-64
2022/05/15 07:40:53;;;;;;;6.55;1.20;;;;;;;21.65;38.42;101332.44;5097274;28;20083;-64
2022/05/15 07:43:20;;;;;;;7.22;1.40;;;;;;;21.75;38.11;101333.72;5113064;28;20048;-64
2022/05/15 07:45:49;;;;;;;2.28;0.90;;;;;;;21.85;37.56;101332.41;5112965;28;20090;-64
2022/05/15 07:48:15;;;;;;;3.53;1.13;;;;;;;21.96;37.38;101343.31;5112838;28;20063;-64
2022/05/15 07:50:42;;;;;;;5.00;1.45;;;;;;;22.04;37.13;101335.94;5112370;28;20484;-64
2022/05/15 07:53:12;;;;;;;6.05;1.15;;;;;;;22.18;37.17;101337.06;5113012;28;20051;-64
2022/05/15 07:55:39;;;;;;;24.90;2.22;;;;;;;22.29;36.62;101335.63;5112917;28;20092;-64
2022/05/15 07:58:09;;;;;;;9.10;1.30;;;;;;;22.35;36.45;101330.06;5092578;28;20048;-64
2022/05/15 08:00:39;;;;;;;5.82;1.10;;;;;;;22.45;36.03;101335.78;5083690;28;20465;-64
2022/05/15 08:03:13;;;;;;;5.43;1.60;;;;;;;22.55;35.91;101331.75;5076861;28;20465;-64
2022/05/15 08:08:27;;;;;;;4.45;0.93;;;;;;;22.76;35.51;101339.56;5093487;28;20054;-64
2022/05/15 08:10:54;;;;;;;3.95;1.30;;;;;;;22.88;35.37;101333.69;5095885;28;20491;-64
2022/05/15 08:13:23;;;;;;;3.80;0.93;;;;;;;23.02;35.13;101339.16;5095916;28;20048;-64
2022/05/15 08:15:52;;;;;;;5.32;1.05;;;;;;;23.15;34.62;101340.25;5095154;28;20083;-64
2022/05/15 08:23:53;;;;;;;3.17;0.98;;;;;;;23.53;34.36;101340.91;5095563;28;20055;-64
2022/05/15 08:26:20;;;;;;;4.32;1.10;;;;;;;23.68;33.90;101333.97;5081306;28;20056;-64
2022/05/15 08:28:51;;;;;;;3.53;1.05;;;;;;;23.79;33.39;101347.50;5082597;28;20051;-64
2022/05/15 08:31:19;;;;;;;5.22;1.00;;;;;;;23.86;33.25;101343.56;5086057;28;20046;-64
2022/05/15 08:33:56;;;;;;;5.28;1.00;;;;;;;23.96;32.95;101357.19;5085165;28;20055;-64
2022/05/15 08:36:24;;;;;;;2.65;0.80;;;;;;;23.99;33.12;101356.16;5091344;28;20131;-64
2022/05/15 08:38:52;;;;;;;2.90;1.08;;;;;;;24.03;33.06;101337.38;5095128;28;20691;-64
2022/05/15 08:41:30;;;;;;;4.35;0.80;;;;;;;24.05;33.12;101342.59;5104363;28;20130;-64
2022/05/15 08:44:08;;;;;;;3.10;1.20;;;;;;;24.07;33.13;101338.06;5115757;28;20048;-64
2022/05/15 08:46:46;;;;;;;6.20;1.17;;;;;;;24.11;32.84;101344.91;5095917;28;20063;-64
2022/05/15 08:49:21;;;;;;;2.25;0.93;;;;;;;24.13;32.57;101348.31;5096768;28;20048;-64
2022/05/15 08:51:57;;;;;;;7.05;1.10;;;;;;;24.11;32.79;101344.91;5109202;28;20063;-64
2022/05/15 08:54:28;;;;;;;6.22;1.55;;;;;;;24.06;32.57;101347.81;5096105;28;20048;-64
2022/05/15 08:56:56;;;;;;;3.92;1.10;;;;;;;23.94;32.88;101353.78;5109642;28;20068;-64
2022/05/15 08:59:26;;;;;;;5.15;0.98;;;;;;;23.89;32.72;101346.06;5095667;28;20047;-64
2022/05/15 09:02:00;;;;;;;6.55;1.30;;;;;;;23.88;32.47;101354.94;5094969;28;20058;-64
2022/05/15 09:04:38;;;;;;;6.25;1.20;;;;;;;23.77;32.85;101346.72;5093939;28;20048;-64
2022/05/15 09:07:15;;;;;;;4.25;1.40;;;;;;;23.71;32.73;101355.00;5093804;28;20059;-64
2022/05/15 09:09:56;;;;;;;3.88;0.98;;;;;;;23.74;32.62;101352.19;5084753;28;20396;-64
2022/05/15 09:12:33;;;;;;;5.00;1.08;;;;;;;23.78;32.81;101360.81;5089415;28;20055;-64
2022/05/15 09:15:04;;;;;;;5.63;1.10;;;;;;;23.81;32.63;101358.00;5094670;28;20046;-64
2022/05/15 09:17:46;;;;;;;1.55;0.90;;;;;;;23.86;32.08;101353.31;5082674;28;20363;-64
2022/05/15 09:20:17;;;;;;;9.50;1.60;;;;;;;23.92;32.34;101351.19;5074288;28;20067;-64
2022/05/15 09:22:51;;;;;;;4.47;1.13;;;;;;;23.99;32.15;101351.72;5074087;28;20060;-64
2022/05/15 09:25:24;;;;;;;2.50;0.70;;;;;;;23.90;32.36;101353.06;5074314;28;20132;-64
2022/05/15 09:28:05;;;;;;;4.97;1.00;;;;;;;23.93;32.40;101357.31;5074230;28;20063;-64
2022/05/15 09:30:38;;;;;;;3.55;0.98;;;;;;;23.96;31.90;101356.34;5075472;28;20104;-64
2022/05/15 09:33:07;;;;;;;5.82;0.70;;;;;;;24.00;31.95;101355.22;5093902;28;20051;-65
2022/05/15 09:35:38;;;;;;;3.30;0.90;;;;;;;23.99;32.03;101364.13;5094056;28;20043;-64
2022/05/15 09:43:59;;;;;;;1.48;0.70;;;;;;;23.58;32.55;101361.88;5089349;28;20063;-64
2022/05/15 09:46:36;;;;;;;1.50;0.70;;;;;;;23.55;32.23;101362.03;5094052;28;20062;-64
2022/05/15 09:49:07;;;;;;;2.40;0.80;;;;;;;23.51;32.01;101371.03;5093496;28;20052;-64
2022/05/15 09:51:47;;;;;;;2.00;0.55;;;;;;;23.34;31.76;101363.09;5087792;28;20594;-63
2022/05/15 09:54:30;;;;;;;1.30;0.50;;;;;;;23.36;31.28;101359.44;5073803;28;20136;-64
2022/05/15 09:57:22;;;;;;;2.85;1.25;;;;;;;23.33;32.13;101369.31;5073799;28;20063;-64
2022/05/15 10:00:03;;;;;;;5.00;1.15;;;;;;;23.27;32.23;101365.19;5073787;28;20060;-64
2022/05/15 10:02:42;;;;;;;3.95;1.17;;;;;;;23.30;32.48;101370.34;5080413;28;20049;-64
2022/05/15 10:05:21;;;;;;;1.80;0.55;;;;;;;23.37;32.39;101369.06;5089704;28;20079;-64
2022/05/15 10:08:08;;;;;;;2.50;0.90;;;;;;;23.37;31.42;101373.50;5093524;28;20456;-64
2022/05/15 10:10:43;;;;;;;6.70;1.35;;;;;;;23.30;32.06;101372.97;5073665;28;20055;-64
2022/05/15 10:13:35;;;;;;;4.60;0.80;;;;;;;23.11;31.69;101381.00;5084525;28;20052;-63
2022/05/15 10:16:21;;;;;;;3.83;1.13;;;;;;;22.95;32.13;101383.56;5090901;28;20048;-64
2022/05/15 10:18:56;;;;;;;3.53;1.05;;;;;;;22.88;32.54;101365.41;5077389;28;20447;-64
2022/05/15 10:21:29;;;;;;;1.92;0.65;;;;;;;22.87;32.51;101363.69;5073173;28;20056;-64
2022/05/15 10:24:04;;;;;;;4.05;0.93;;;;;;;22.79;32.88;101360.53;5072763;28;20354;-64
2022/05/15 10:26:41;;;;;;;1.60;0.70;;;;;;;22.74;32.96;101362.56;5073090;28;20052;-64
2022/05/15 10:29:30;;;;;;;7.10;1.05;;;;;;;22.87;32.89;101374.28;5102213;28;20458;-64
2022/05/15 10:32:06;;;;;;;4.05;0.70;;;;;;;22.94;32.99;101376.56;5107210;28;20051;-64
2022/05/15 10:34:42;;;;;;;4.53;0.95;;;;;;;22.92;32.82;101367.00;5104329;28;20040;-64
2022/05/15 10:37:51;;;;;;;4.30;1.27;;;;;;;22.82;32.80;101366.56;5089364;28;20043;-64
2022/05/15 10:40:29;;;;;;;4.40;1.58;;;;;;;22.65;32.67;101370.00;5088856;28;20083;-64
2022/05/15 10:43:31;;;;;;;4.35;1.42;;;;;;;22.54;32.96;101377.59;5113418;28;20048;-64
2022/05/15 10:46:15;;;;;;;3.25;1.25;;;;;;;22.40;33.02;101356.28;5101286;28;20048;-64
2022/05/15 10:48:52;;;;;;;5.65;0.93;;;;;;;22.30;33.28;101360.25;5093460;28;20052;-64
2022/05/15 10:51:23;;;;;;;8.10;0.80;;;;;;;22.24;33.53;101363.19;5092558;28;20064;-64
2022/05/15 10:57:29;;;;;;;5.57;1.05;;;;;;;22.14;33.63;101364.56;5072877;28;20055;-64
2022/05/15 11:00:48;;;;;;;1.52;0.70;;;;;;;22.23;33.17;101362.34;5073003;28;20063;-64
2022/05/15 11:03:42;;;;;;;2.65;0.75;;;;;;;22.21;33.83;101365.97;5091011;28;20109;-64
2022/05/15 11:06:36;;;;;;;4.10;0.80;;;;;;;22.21;33.63;101358.91;5092615;28;20492;-64
2022/05/15 11:09:15;;;;;;;4.47;1.25;;;;;;;22.25;34.32;101354.34;5072969;28;20076;-64
2022/05/15 11:11:58;;;;;;;4.40;0.77;;;;;;;22.36;34.31;101370.53;5074837;28;20066;-64
2022/05/15 11:14:33;;;;;;;5.88;1.00;;;;;;;22.35;34.04;101359.09;5093175;28;20109;-64
2022/05/15 11:17:17;;;;;;;;;;;;;;;22.23;34.21;101358.84;5073230;28;20049;-64
2022/05/15 11:19:54;;;;;;;5.30;0.85;;;;;;;22.20;34.02;101364.25;5072835;28;19985;-64
2022/05/15 11:22:32;;;;;;;3.00;0.75;;;;;;;22.01;34.15;101372.16;5094939;28;20051;-63
2022/05/15 11:25:08;;;;;;;4.30;1.00;;;;;;;22.00;34.12;101352.81;5113316;28;20048;-63
2022/05/15 11:27:44;;;;;;;2.42;0.65;;;;;;;22.07;34.12;101361.34;5113229;28;20108;-63
2022/05/15 11:30:20;;;;;;;4.32;0.60;;;;;;;22.07;34.30;101363.13;5112855;28;20353;-63
2022/05/15 11:33:08;;;;;;;1.90;0.73;;;;;;;22.03;34.67;101365.91;5112405;28;20056;-63
2022/05/15 11:35:43;;;;;;;5.72;0.70;;;;;;;22.02;34.60;101364.16;5109572;28;20066;-64
2022/05/15 11:38:31;;;;;;;2.23;0.67;;;;;;;21.97;34.67;101371.44;5091812;28;20362;-64
2022/05/15 11:40:59;;;;;;;3.17;0.73;;;;;;;21.91;35.01;101369.06;5098060;28;20364;-64
2022/05/15 11:44:09;;;;;;;1.20;0.68;;;;;;;21.91;34.66;101363.81;5096460;28;20105;-64
2022/05/15 11:47:05;;;;;;;8.05;0.95;;;;;;;21.91;34.81;101366.44;5064440;28;20062;-63
2022/05/15 11:49:39;;;;;;;3.42;0.70;;;;;;;21.97;34.49;101366.16;5086221;28;20061;-63
2022/05/15 11:52:33;;;;;;;3.15;0.65;;;;;;;21.94;34.65;101366.28;5075765;28;20481;-64
2022/05/15 11:55:45;;;;;;;3.90;0.60;;;;;;;21.85;34.50;101373.75;5106874;28;20396;-64
2022/05/15 11:58:37;;;;;;;2.17;0.50;;;;;;;21.78;34.48;101359.97;5116606;28;20087;-64
2022/05/15 12:01:38;;;;;;;2.38;0.75;;;;;;;21.71;34.72;101358.53;5091753;28;20102;-64
2022/05/15 12:04:15;;;;;;;2.00;0.70;;;;;;;21.68;35.16;101359.53;5092785;28;20052;-63
2022/05/15 12:06:50;;;;;;;22.25;1.58;;;;;;;21.71;34.98;101367.31;5085985;28;20063;-64
2022/05/15 12:09:52;;;;;;;1.17;0.45;;;;;;;21.67;35.13;101357.81;5086818;28;20059;-63
2022/05/15 12:13:08;;;;;;;2.97;0.85;;;;;;;21.64;34.75;101363.25;5084689;28;20044;-64
2022/05/15 12:15:50;;;;;;;1.70;0.70;;;;;;;21.47;35.06;101364.91;5087090;28;20133;-63
2022/05/15 12:18:39;;;;;;;2.17;0.47;;;;;;;21.40;34.45;101359.91;5084687;28;20048;-63
2022/05/15 12:21:16;;;;;;;2.90;0.82;;;;;;;21.35;34.53;101361.03;5080223;28;20117;-64
2022/05/15 12:24:27;;;;;;;3.58;1.05;;;;;;;21.22;34.97;101360.63;5075432;28;20056;-64
2022/05/15 12:26:56;;;;;;;3.75;0.98;;;;;;;21.08;35.19;101352.47;5074455;28;20066;-63
2022/05/15 12:29:37;;;;;;;2.60;0.95;;;;;;;20.99;35.56;101348.44;5089399;28;20694;-65
2022/05/15 12:32:13;;;;;;;1.48;0.68;;;;;;;21.03;35.59;101343.91;5101506;28;20101;-65
2022/05/15 12:34:46;;;;;;;2.40;0.68;;;;;;;21.08;35.62;101352.47;5095527;28;20044;-63